sensor_id;sensor_type;location;lat;lon;timestamp;P1;durP1;ratioP1;P2;durP2;ratioP2
36547;SDS011;22551;52.206;4.856;2023-07-20T00:03:48;2.55;;;1.60;;
36547;SDS011;22551;52.206;4.856;2023-07-20T00:08:55;0.93;;;0.80;;
36547;SDS011;22551;52.206;4.856;2023-07-20T00:14:02;3.28;;;0.88;;
36547;SDS011;22551;52.206;4.856;2023-07-20T00:19:06;2.38;;;1.00;;
36547;SDS011;22551;52.206;4.856;2023-07-20T00:24:10;0.80;;;0.77;;
36547;SDS011;22551;52.206;4.856;2023-07-20T00:29:12;3.13;;;1.13;;
36547;SDS011;22551;52.206;4.856;2023-07-20T00:34:16;0.88;;;0.85;;
36547;SDS011;22551;52.206;4.856;2023-07-20T00:39:18;2.40;;;1.50;;
36547;SDS011;22551;52.206;4.856;2023-07-20T00:44:21;1.35;;;1.15;;
36547;SDS011;22551;52.206;4.856;2023-07-20T00:49:24;3.65;;;1.35;;
36547;SDS011;22551;52.206;4.856;2023-07-20T00:54:30;2.28;;;1.08;;
36547;SDS011;22551;52.206;4.856;2023-07-20T00:59:33;2.20;;;1.13;;
36547;SDS011;22551;52.206;4.856;2023-07-20T01:04:37;1.70;;;1.08;;
36547;SDS011;22551;52.206;4.856;2023-07-20T01:20:08;2.15;;;1.20;;
36547;SDS011;22551;52.206;4.856;2023-07-20T01:30:59;1.42;;;1.20;;
36547;SDS011;22551;52.206;4.856;2023-07-20T01:36:24;3.53;;;1.23;;
36547;SDS011;22551;52.206;4.856;2023-07-20T01:41:30;2.22;;;1.20;;
36547;SDS011;22551;52.206;4.856;2023-07-20T01:46:34;2.78;;;1.80;;
36547;SDS011;22551;52.206;4.856;2023-07-20T01:51:37;2.00;;;1.10;;
36547;SDS011;22551;52.206;4.856;2023-07-20T01:56:39;3.25;;;1.60;;
36547;SDS011;22551;52.206;4.856;2023-07-20T02:01:42;2.45;;;0.90;;
36547;SDS011;22551;52.206;4.856;2023-07-20T02:06:45;1.75;;;1.10;;
36547;SDS011;22551;52.206;4.856;2023-07-20T02:11:47;1.35;;;0.98;;
36547;SDS011;22551;52.206;4.856;2023-07-20T02:16:51;1.10;;;1.00;;
36547;SDS011;22551;52.206;4.856;2023-07-20T02:21:57;2.85;;;1.23;;
36547;SDS011;22551;52.206;4.856;2023-07-20T02:27:00;3.53;;;1.30;;
36547;SDS011;22551;52.206;4.856;2023-07-20T02:32:04;1.30;;;1.00;;
36547;SDS011;22551;52.206;4.856;2023-07-20T02:37:07;3.35;;;1.55;;
36547;SDS011;22551;52.206;4.856;2023-07-20T02:42:10;1.55;;;1.45;;
36547;SDS011;22551;52.206;4.856;2023-07-20T02:47:14;1.27;;;1.17;;
36547;SDS011;22551;52.206;4.856;2023-07-20T02:52:17;5.40;;;1.40;;
36547;SDS011;22551;52.206;4.856;2023-07-20T02:57:19;2.50;;;1.40;;
36547;SDS011;22551;52.206;4.856;2023-07-20T03:02:23;3.03;;;1.52;;
36547;SDS011;22551;52.206;4.856;2023-07-20T03:07:26;1.70;;;1.60;;
36547;SDS011;22551;52.206;4.856;2023-07-20T03:12:29;2.55;;;1.40;;
36547;SDS011;22551;52.206;4.856;2023-07-20T03:17:35;2.08;;;1.38;;
36547;SDS011;22551;52.206;4.856;2023-07-20T03:22:37;2.00;;;1.57;;
36547;SDS011;22551;52.206;4.856;2023-07-20T03:27:39;2.83;;;1.67;;
36547;SDS011;22551;52.206;4.856;2023-07-20T03:32:43;2.75;;;1.45;;
36547;SDS011;22551;52.206;4.856;2023-07-20T03:37:45;7.18;;;2.10;;
36547;SDS011;22551;52.206;4.856;2023-07-20T03:42:48;2.13;;;1.60;;
36547;SDS011;22551;52.206;4.856;2023-07-20T03:47:51;3.17;;;2.20;;
36547;SDS011;22551;52.206;4.856;2023-07-20T03:52:54;3.10;;;2.17;;
36547;SDS011;22551;52.206;4.856;2023-07-20T03:57:56;2.13;;;1.90;;
36547;SDS011;22551;52.206;4.856;2023-07-20T04:03:00;2.13;;;1.92;;
36547;SDS011;22551;52.206;4.856;2023-07-20T04:08:03;4.00;;;2.60;;
36547;SDS011;22551;52.206;4.856;2023-07-20T04:13:05;3.08;;;2.53;;
36547;SDS011;22551;52.206;4.856;2023-07-20T04:18:09;4.32;;;2.83;;
36547;SDS011;22551;52.206;4.856;2023-07-20T04:23:11;3.95;;;3.25;;
36547;SDS011;22551;52.206;4.856;2023-07-20T04:28:14;4.63;;;3.40;;
36547;SDS011;22551;52.206;4.856;2023-07-20T04:33:17;4.78;;;3.33;;
36547;SDS011;22551;52.206;4.856;2023-07-20T04:38:20;5.00;;;3.93;;
36547;SDS011;22551;52.206;4.856;2023-07-20T04:43:24;4.20;;;3.08;;
36547;SDS011;22551;52.206;4.856;2023-07-20T04:48:28;5.28;;;3.33;;
36547;SDS011;22551;52.206;4.856;2023-07-20T04:53:30;5.82;;;4.25;;
36547;SDS011;22551;52.206;4.856;2023-07-20T04:58:32;4.75;;;3.35;;
36547;SDS011;22551;52.206;4.856;2023-07-20T06:15:10;2.53;;;1.63;;
36547;SDS011;22551;52.206;4.856;2023-07-20T06:20:27;1.58;;;0.73;;
36547;SDS011;22551;52.206;4.856;2023-07-20T06:25:31;1.95;;;0.80;;
36547;SDS011;22551;52.206;4.856;2023-07-20T06:30:35;0.70;;;0.70;;
36547;SDS011;22551;52.206;4.856;2023-07-20T06:35:37;0.95;;;0.63;;
36547;SDS011;22551;52.206;4.856;2023-07-20T06:40:42;6.57;;;0.60;;
36547;SDS011;22551;52.206;4.856;2023-07-20T06:45:50;0.98;;;0.50;;
36547;SDS011;22551;52.206;4.856;2023-07-20T06:50:53;1.67;;;0.43;;
36547;SDS011;22551;52.206;4.856;2023-07-20T06:55:56;1.90;;;0.50;;
36547;SDS011;22551;52.206;4.856;2023-07-20T07:01:09;2.97;;;0.50;;
36547;SDS011;22551;52.206;4.856;2023-07-20T07:06:11;0.43;;;0.40;;
36547;SDS011;22551;52.206;4.856;2023-07-20T07:11:13;0.73;;;0.30;;
36547;SDS011;22551;52.206;4.856;2023-07-20T07:16:17;3.30;;;0.50;;
36547;SDS011;22551;52.206;4.856;2023-07-20T07:21:19;5.20;;;0.30;;
36547;SDS011;22551;52.206;4.856;2023-07-20T07:26:21;1.38;;;0.25;;
36547;SDS011;22551;52.206;4.856;2023-07-20T07:31:26;0.35;;;0.20;;
36547;SDS011;22551;52.206;4.856;2023-07-20T07:36:29;2.67;;;0.55;;
36547;SDS011;22551;52.206;4.856;2023-07-20T07:41:42;2.72;;;0.32;;
36547;SDS011;22551;52.206;4.856;2023-07-20T07:46:45;2.42;;;0.80;;
36547;SDS011;22551;52.206;4.856;2023-07-20T07:51:49;2.58;;;0.60;;
36547;SDS011;22551;52.206;4.856;2023-07-20T07:56:51;1.10;;;0.40;;
36547;SDS011;22551;52.206;4.856;2023-07-20T08:01:55;2.25;;;0.25;;
36547;SDS011;22551;52.206;4.856;2023-07-20T08:06:59;0.50;;;0.20;;
36547;SDS011;22551;52.206;4.856;2023-07-20T08:12:01;0.77;;;0.40;;
36547;SDS011;22551;52.206;4.856;2023-07-20T08:17:06;1.17;;;0.30;;
36547;SDS011;22551;52.206;4.856;2023-07-20T08:22:11;1.02;;;0.30;;
36547;SDS011;22551;52.206;4.856;2023-07-20T08:27:13;3.15;;;0.55;;
36547;SDS011;22551;52.206;4.856;2023-07-20T08:32:17;0.30;;;0.20;;
36547;SDS011;22551;52.206;4.856;2023-07-20T08:42:24;2.25;;;0.35;;
36547;SDS011;22551;52.206;4.856;2023-07-20T08:47:29;6.53;;;0.57;;
36547;SDS011;22551;52.206;4.856;2023-07-20T08:52:32;0.80;;;0.30;;
36547;SDS011;22551;52.206;4.856;2023-07-20T08:57:36;0.88;;;0.30;;
36547;SDS011;22551;52.206;4.856;2023-07-20T09:02:43;3.92;;;0.30;;
36547;SDS011;22551;52.206;4.856;2023-07-20T09:07:47;2.10;;;0.70;;
36547;SDS011;22551;52.206;4.856;2023-07-20T09:12:49;0.60;;;0.20;;
36547;SDS011;22551;52.206;4.856;2023-07-20T09:17:53;0.65;;;0.20;;
36547;SDS011;22551;52.206;4.856;2023-07-20T09:22:55;0.20;;;0.20;;
36547;SDS011;22551;52.206;4.856;2023-07-20T09:28:01;0.53;;;0.20;;
36547;SDS011;22551;52.206;4.856;2023-07-20T09:33:06;0.57;;;0.40;;
36547;SDS011;22551;52.206;4.856;2023-07-20T09:38:20;0.43;;;0.10;;
36547;SDS011;22551;52.206;4.856;2023-07-20T09:43:28;0.45;;;0.30;;
36547;SDS011;22551;52.206;4.856;2023-07-20T09:48:34;2.30;;;0.22;;
36547;SDS011;22551;52.206;4.856;2023-07-20T09:58:39;0.57;;;0.30;;
36547;SDS011;22551;52.206;4.856;2023-07-20T10:03:44;0.38;;;0.20;;
36547;SDS011;22551;52.206;4.856;2023-07-20T10:09:02;1.27;;;0.60;;
36547;SDS011;22551;52.206;4.856;2023-07-20T10:14:06;1.02;;;0.20;;
36547;SDS011;22551;52.206;4.856;2023-07-20T10:19:23;0.68;;;0.40;;
36547;SDS011;22551;52.206;4.856;2023-07-20T10:24:29;0.85;;;0.20;;
36547;SDS011;22551;52.206;4.856;2023-07-20T10:29:34;1.42;;;0.20;;
36547;SDS011;22551;52.206;4.856;2023-07-20T10:34:38;1.17;;;0.10;;
36547;SDS011;22551;52.206;4.856;2023-07-20T10:39:41;0.73;;;0.10;;
36547;SDS011;22551;52.206;4.856;2023-07-20T10:44:44;0.10;;;0.10;;
36547;SDS011;22551;52.206;4.856;2023-07-20T10:55:10;0.43;;;0.10;;
36547;SDS011;22551;52.206;4.856;2023-07-20T11:00:18;0.50;;;0.30;;
36547;SDS011;22551;52.206;4.856;2023-07-20T11:05:34;2.10;;;0.25;;
36547;SDS011;22551;52.206;4.856;2023-07-20T11:10:40;1.23;;;0.20;;
36547;SDS011;22551;52.206;4.856;2023-07-20T11:15:45;1.93;;;0.37;;
36547;SDS011;22551;52.206;4.856;2023-07-20T11:20:51;0.52;;;0.15;;
36547;SDS011;22551;52.206;4.856;2023-07-20T11:25:54;1.70;;;0.20;;
36547;SDS011;22551;52.206;4.856;2023-07-20T11:30:59;0.40;;;0.30;;
36547;SDS011;22551;52.206;4.856;2023-07-20T11:36:03;1.52;;;0.63;;
36547;SDS011;22551;52.206;4.856;2023-07-20T11:41:06;0.13;;;0.10;;
36547;SDS011;22551;52.206;4.856;2023-07-20T11:46:34;0.30;;;0.20;;
36547;SDS011;22551;52.206;4.856;2023-07-20T11:51:49;2.10;;;0.20;;
36547;SDS011;22551;52.206;4.856;2023-07-20T11:56:54;0.20;;;0.20;;
36547;SDS011;22551;52.206;4.856;2023-07-20T12:01:56;0.00;;;0.00;;
36547;SDS011;22551;52.206;4.856;2023-07-20T12:07:01;0.80;;;0.10;;
36547;SDS011;22551;52.206;4.856;2023-07-20T12:12:08;1.55;;;0.20;;
36547;SDS011;22551;52.206;4.856;2023-07-20T12:17:14;0.10;;;0.10;;
36547;SDS011;22551;52.206;4.856;2023-07-20T12:22:19;0.28;;;0.10;;
36547;SDS011;22551;52.206;4.856;2023-07-20T12:27:27;1.27;;;0.25;;
36547;SDS011;22551;52.206;4.856;2023-07-20T12:32:29;1.75;;;0.10;;
36547;SDS011;22551;52.206;4.856;2023-07-20T12:37:36;2.58;;;0.25;;
36547;SDS011;22551;52.206;4.856;2023-07-20T12:42:40;1.85;;;0.10;;
36547;SDS011;22551;52.206;4.856;2023-07-20T12:47:43;1.75;;;0.10;;
36547;SDS011;22551;52.206;4.856;2023-07-20T12:52:57;0.20;;;0.20;;
36547;SDS011;22551;52.206;4.856;2023-07-20T12:58:00;0.38;;;0.20;;
36547;SDS011;22551;52.206;4.856;2023-07-20T13:03:02;0.98;;;0.30;;
36547;SDS011;22551;52.206;4.856;2023-07-20T13:08:11;0.32;;;0.10;;
36547;SDS011;22551;52.206;4.856;2023-07-20T13:13:13;0.90;;;0.10;;
36547;SDS011;22551;52.206;4.856;2023-07-20T13:18:16;1.05;;;0.17;;
36547;SDS011;22551;52.206;4.856;2023-07-20T13:23:20;1.55;;;0.20;;
36547;SDS011;22551;52.206;4.856;2023-07-20T13:28:23;0.22;;;0.00;;
36547;SDS011;22551;52.206;4.856;2023-07-20T13:33:25;0.67;;;0.20;;
36547;SDS011;22551;52.206;4.856;2023-07-20T13:38:29;0.57;;;0.10;;
36547;SDS011;22551;52.206;4.856;2023-07-20T13:43:31;0.00;;;0.00;;
36547;SDS011;22551;52.206;4.856;2023-07-20T13:48:33;0.70;;;0.05;;
36547;SDS011;22551;52.206;4.856;2023-07-20T13:53:45;2.28;;;0.20;;
36547;SDS011;22551;52.206;4.856;2023-07-20T13:59:12;0.20;;;0.20;;
36547;SDS011;22551;52.206;4.856;2023-07-20T14:04:33;0.03;;;0.03;;
36547;SDS011;22551;52.206;4.856;2023-07-20T14:10:05;1.95;;;0.28;;
36547;SDS011;22551;52.206;4.856;2023-07-20T14:15:09;0.10;;;0.00;;
36547;SDS011;22551;52.206;4.856;2023-07-20T14:20:12;0.30;;;0.10;;
36547;SDS011;22551;52.206;4.856;2023-07-20T14:25:15;4.65;;;0.10;;
36547;SDS011;22551;52.206;4.856;2023-07-20T14:30:18;5.25;;;0.50;;
36547;SDS011;22551;52.206;4.856;2023-07-20T14:35:20;0.20;;;0.13;;
36547;SDS011;22551;52.206;4.856;2023-07-20T14:40:25;0.10;;;0.10;;
36547;SDS011;22551;52.206;4.856;2023-07-20T14:45:29;0.30;;;0.10;;
36547;SDS011;22551;52.206;4.856;2023-07-20T14:50:31;1.17;;;0.10;;
36547;SDS011;22551;52.206;4.856;2023-07-20T14:55:42;1.58;;;0.10;;
36547;SDS011;22551;52.206;4.856;2023-07-20T15:00:46;3.22;;;0.17;;
36547;SDS011;22551;52.206;4.856;2023-07-20T15:05:48;0.25;;;0.10;;
36547;SDS011;22551;52.206;4.856;2023-07-20T15:10:52;0.40;;;0.10;;
36547;SDS011;22551;52.206;4.856;2023-07-20T15:15:55;0.32;;;0.28;;
36547;SDS011;22551;52.206;4.856;2023-07-20T15:20:58;0.10;;;0.10;;
36547;SDS011;22551;52.206;4.856;2023-07-20T15:26:02;0.10;;;0.10;;
36547;SDS011;22551;52.206;4.856;2023-07-20T15:31:04;0.20;;;0.20;;
36547;SDS011;22551;52.206;4.856;2023-07-20T15:36:07;4.70;;;0.27;;
36547;SDS011;22551;52.206;4.856;2023-07-20T15:41:10;0.25;;;0.10;;
36547;SDS011;22551;52.206;4.856;2023-07-20T15:46:35;0.30;;;0.10;;
36547;SDS011;22551;52.206;4.856;2023-07-20T15:51:47;0.60;;;0.13;;
36547;SDS011;22551;52.206;4.856;2023-07-20T15:56:50;0.15;;;0.10;;
36547;SDS011;22551;52.206;4.856;2023-07-20T16:01:53;0.28;;;0.20;;
36547;SDS011;22551;52.206;4.856;2023-07-20T16:06:55;0.00;;;0.00;;
36547;SDS011;22551;52.206;4.856;2023-07-20T16:12:00;0.43;;;0.23;;
36547;SDS011;22551;52.206;4.856;2023-07-20T16:17:02;1.08;;;0.10;;
36547;SDS011;22551;52.206;4.856;2023-07-20T16:22:05;1.90;;;0.30;;
36547;SDS011;22551;52.206;4.856;2023-07-20T16:27:10;0.00;;;0.00;;
36547;SDS011;22551;52.206;4.856;2023-07-20T16:32:14;2.05;;;0.13;;
36547;SDS011;22551;52.206;4.856;2023-07-20T16:37:16;0.50;;;0.35;;
36547;SDS011;22551;52.206;4.856;2023-07-20T16:42:20;0.25;;;0.20;;
36547;SDS011;22551;52.206;4.856;2023-07-20T16:47:24;0.95;;;0.10;;
36547;SDS011;22551;52.206;4.856;2023-07-20T16:52:26;0.10;;;0.10;;
36547;SDS011;22551;52.206;4.856;2023-07-20T16:57:30;0.33;;;0.33;;
36547;SDS011;22551;52.206;4.856;2023-07-20T17:02:32;0.50;;;0.28;;
36547;SDS011;22551;52.206;4.856;2023-07-20T17:07:35;0.77;;;0.50;;
36547;SDS011;22551;52.206;4.856;2023-07-20T17:12:39;0.47;;;0.20;;
36547;SDS011;22551;52.206;4.856;2023-07-20T17:17:41;3.33;;;0.20;;
36547;SDS011;22551;52.206;4.856;2023-07-20T17:22:43;0.30;;;0.17;;
36547;SDS011;22551;52.206;4.856;2023-07-20T17:27:47;0.20;;;0.20;;
36547;SDS011;22551;52.206;4.856;2023-07-20T17:32:50;0.17;;;0.10;;
36547;SDS011;22551;52.206;4.856;2023-07-20T17:37:52;0.10;;;0.10;;
36547;SDS011;22551;52.206;4.856;2023-07-20T17:42:56;0.35;;;0.30;;
36547;SDS011;22551;52.206;4.856;2023-07-20T17:53:01;0.80;;;0.30;;
36547;SDS011;22551;52.206;4.856;2023-07-20T17:58:05;3.13;;;0.33;;
36547;SDS011;22551;52.206;4.856;2023-07-20T18:03:08;0.57;;;0.20;;
36547;SDS011;22551;52.206;4.856;2023-07-20T18:08:11;0.50;;;0.10;;
36547;SDS011;22551;52.206;4.856;2023-07-20T18:13:15;0.50;;;0.20;;
36547;SDS011;22551;52.206;4.856;2023-07-20T18:18:17;0.70;;;0.30;;
36547;SDS011;22551;52.206;4.856;2023-07-20T18:23:20;0.60;;;0.30;;
36547;SDS011;22551;52.206;4.856;2023-07-20T18:28:24;0.88;;;0.20;;
36547;SDS011;22551;52.206;4.856;2023-07-20T18:33:26;1.05;;;0.30;;
36547;SDS011;22551;52.206;4.856;2023-07-20T18:38:29;0.20;;;0.20;;
36547;SDS011;22551;52.206;4.856;2023-07-20T18:43:33;4.90;;;0.30;;
36547;SDS011;22551;52.206;4.856;2023-07-20T18:48:36;2.85;;;0.50;;
36547;SDS011;22551;52.206;4.856;2023-07-20T18:53:40;1.05;;;0.40;;
36547;SDS011;22551;52.206;4.856;2023-07-20T18:58:45;0.40;;;0.40;;
36547;SDS011;22551;52.206;4.856;2023-07-20T19:08:50;0.50;;;0.20;;
36547;SDS011;22551;52.206;4.856;2023-07-20T19:13:56;3.28;;;0.17;;
36547;SDS011;22551;52.206;4.856;2023-07-20T19:19:04;0.52;;;0.30;;
36547;SDS011;22551;52.206;4.856;2023-07-20T19:24:06;1.17;;;0.40;;
36547;SDS011;22551;52.206;4.856;2023-07-20T19:29:10;1.48;;;0.30;;
36547;SDS011;22551;52.206;4.856;2023-07-20T19:34:12;0.40;;;0.40;;
36547;SDS011;22551;52.206;4.856;2023-07-20T19:39:18;0.47;;;0.30;;
36547;SDS011;22551;52.206;4.856;2023-07-20T19:44:30;2.75;;;0.50;;
36547;SDS011;22551;52.206;4.856;2023-07-20T19:49:32;0.90;;;0.50;;
36547;SDS011;22551;52.206;4.856;2023-07-20T19:54:35;0.40;;;0.22;;
36547;SDS011;22551;52.206;4.856;2023-07-20T19:59:43;2.63;;;0.55;;
36547;SDS011;22551;52.206;4.856;2023-07-20T20:04:48;1.75;;;0.80;;
36547;SDS011;22551;52.206;4.856;2023-07-20T20:09:50;1.15;;;0.55;;
36547;SDS011;22551;52.206;4.856;2023-07-20T20:14:54;13.90;;;1.05;;
36547;SDS011;22551;52.206;4.856;2023-07-20T20:19:58;3.33;;;0.82;;
36547;SDS011;22551;52.206;4.856;2023-07-20T20:25:00;2.80;;;1.10;;
36547;SDS011;22551;52.206;4.856;2023-07-20T20:30:07;0.73;;;0.60;;
36547;SDS011;22551;52.206;4.856;2023-07-20T20:35:11;1.45;;;0.70;;
36547;SDS011;22551;52.206;4.856;2023-07-20T20:40:13;2.33;;;0.50;;
36547;SDS011;22551;52.206;4.856;2023-07-20T20:45:17;2.15;;;0.95;;
36547;SDS011;22551;52.206;4.856;2023-07-20T20:50:19;1.10;;;0.80;;
36547;SDS011;22551;52.206;4.856;2023-07-20T20:55:22;1.38;;;0.70;;
36547;SDS011;22551;52.206;4.856;2023-07-20T21:00:31;1.42;;;0.70;;
36547;SDS011;22551;52.206;4.856;2023-07-20T21:05:34;2.97;;;0.55;;
36547;SDS011;22551;52.206;4.856;2023-07-20T21:10:43;1.52;;;0.60;;
36547;SDS011;22551;52.206;4.856;2023-07-20T21:15:53;1.35;;;0.70;;
36547;SDS011;22551;52.206;4.856;2023-07-20T21:26:11;2.15;;;0.85;;
36547;SDS011;22551;52.206;4.856;2023-07-20T21:31:18;0.90;;;0.73;;
36547;SDS011;22551;52.206;4.856;2023-07-20T21:36:21;2.28;;;1.02;;
36547;SDS011;22551;52.206;4.856;2023-07-20T21:41:24;1.27;;;1.00;;
36547;SDS011;22551;52.206;4.856;2023-07-20T21:46:49;1.30;;;0.77;;
36547;SDS011;22551;52.206;4.856;2023-07-20T21:52:00;1.95;;;0.82;;
36547;SDS011;22551;52.206;4.856;2023-07-20T21:57:03;3.13;;;0.90;;
36547;SDS011;22551;52.206;4.856;2023-07-20T22:02:08;1.37;;;1.03;;
36547;SDS011;22551;52.206;4.856;2023-07-20T22:07:11;1.17;;;1.00;;
36547;SDS011;22551;52.206;4.856;2023-07-20T22:12:14;1.65;;;1.10;;
36547;SDS011;22551;52.206;4.856;2023-07-20T22:17:18;0.98;;;0.70;;
36547;SDS011;22551;52.206;4.856;2023-07-20T22:22:21;1.25;;;1.00;;
36547;SDS011;22551;52.206;4.856;2023-07-20T22:27:23;2.25;;;0.98;;
36547;SDS011;22551;52.206;4.856;2023-07-20T22:32:27;2.47;;;1.10;;
36547;SDS011;22551;52.206;4.856;2023-07-20T22:37:30;1.20;;;1.10;;
36547;SDS011;22551;52.206;4.856;2023-07-20T22:42:32;2.72;;;0.98;;
36547;SDS011;22551;52.206;4.856;2023-07-20T22:47:36;1.23;;;1.13;;
36547;SDS011;22551;52.206;4.856;2023-07-20T22:52:41;2.50;;;0.98;;
36547;SDS011;22551;52.206;4.856;2023-07-20T22:57:44;1.45;;;0.93;;
36547;SDS011;22551;52.206;4.856;2023-07-20T23:02:48;2.22;;;1.25;;
36547;SDS011;22551;52.206;4.856;2023-07-20T23:07:50;3.38;;;1.65;;
36547;SDS011;22551;52.206;4.856;2023-07-20T23:12:53;1.25;;;0.80;;
36547;SDS011;22551;52.206;4.856;2023-07-20T23:23:00;3.30;;;1.08;;
36547;SDS011;22551;52.206;4.856;2023-07-20T23:28:03;2.00;;;1.30;;
36547;SDS011;22551;52.206;4.856;2023-07-20T23:33:07;2.22;;;1.30;;
36547;SDS011;22551;52.206;4.856;2023-07-20T23:38:09;5.63;;;1.00;;
36547;SDS011;22551;52.206;4.856;2023-07-20T23:43:11;1.15;;;0.90;;
36547;SDS011;22551;52.206;4.856;2023-07-20T23:48:15;2.10;;;0.88;;
36547;SDS011;22551;52.206;4.856;2023-07-20T23:53:17;3.33;;;1.00;;
36547;SDS011;22551;52.206;4.856;2023-07-20T23:58:20;1.58;;;1.00;;
